الصفحة الرئيسية
METAR-TAF:

METAR-TAF

مطار :

سكاكا, السعودية

مطار الجوف المحلي

دائرة عرض: 29-47N, خط طول: 040-06E, ارتفاع: 689 متر

مراقبة الطقس الحالي

تاريخ ووقت الإصدار 59 دقيقة قبل الساعة 14:00UTC
ريح 4 عقدة من الشمال الشرقي
درجة الحرارة 27°درجة مئوية
الرطوبة 20%
ضغط 1013 hPa
الرؤية: 0800 متر
سماء صافية
العجاج

METAR: OESK 241400Z 05004KT 0800 HZ SKC 27/02 Q1013 NOSIG

زمن: 17:59 (14:59 UTC)

توقعات

تاريخ ووقت الإصدار 3ساعات و 59 دقيقة قبل الساعة 11:00UTC
التوقعات صالحة من24 الساعة 12 UTC إلى 25 الساعة 18 UTC
ريح 8 عقدة من الشرق تتزايد حتى 18 عقدة
الرؤية: 6000 متر
سماء صافية
مؤقت
من 24 الساعة 12 UTC إلى 24 الساعة 24 UTC
الرؤية: 3500 متر
غبار, هبوب الغبار
نظرية الاحتمالات 30% :
مؤقت
من 24 الساعة 12 UTC إلى 24 الساعة 18 UTC
الرؤية: 1000 متر

TAF: OESK 241100Z 2412/2518 08008G18KT 6000 SKC TEMPO 2412/2424 3500 DU BLDU PROB30 TEMPO 2412/2418 1000

أرصاد الطقس والتوقعات من أكثر من 4000 مطار (تقارير الطقس للمطار METAR والتنبؤ بالطقس بالمطارTAF).

المحطات المتاحة هي النقط الصفراء والحمراء على الخريطة.

حرك المؤشر فوق النقطة لمعرفة اسم المحطة.

ثم انقر لمعرفة أرصاد وتوقعات الطقس.

لتغيير الخارطة: اضغط على الأزرار الخضراء مع رمز الصليب الأسود للتكبير. على الزر الأخضر مع شرطة للتصغير، أو على الأسهم الخضراء للخرائط المجاورة.


METAR-TAF: